EGKKEGKA

Guest
Details From EGKK - London Gatwick
To EGKA - Shoreham
Flight Number -
Tags decoded
Created
Modified
Stats Distance 19 nm / 36 km
Max Altitude 0 ft / 0 m
Waypoints 2
Social Downloads 3
Likes 0
Share VATSIM

Download

Looking for another format? Having issues loading an existing format? Contact us
Advertisement - Login to hide

Notes

Requested: EGKK EGKA

Route

EGKK EGKA

ID Type Via Altitude Latitude Longitude Leg Dist Tot Dist Heading (true) Name
O EGKK APT - 0 ft / 0 m 51.14875˚ -0.19247˚ - 0 nm - London Gatwick
O EGKA APT - 0 ft / 0 m 50.83580˚ -0.29481˚ 19 nm 19 nm 192° / 192° Shoreham

Altitude Profile

Advertisement - Login to hide

EGKK

Details ICAO EGKK (LGW)
Name London Gatwick
Region United Kingdom
Timezone Europe/London (UTC+1.0)
Stats Elevation 196 ft / 60 m (AMSL)
Location 51.148753° -0.192472°
Runways 2
Magnetic Variation 0.368° W

METAR

EGKK 231520Z 02012KT 360V090 9999 SCT031 19/11 Q1021

Decode

TAF

TAF AMD EGKK 231453Z 2314/2418 01012KT 9999 FEW030 PROB30 TEMPO 2314/2321 03015G25KT 7000 SHRA TEMPO 2321/2418 6000 SHRA PROB30 TEMPO 2323/2403 02015G25KT 4000 +SHRA PROB40 TEMPO 2410/2418 03015G25KT 4000 +SHRA

Decode

Departure Runways

ID Width Length Bearing (true) Bearing (mag) Surface Threshold Offset Overrun Length
08L 148 ft / 45 m 8,377 ft / 2,553 m 77.69° 78.06° Asphalt 1,053 ft / 321 m 0 ft / 0 m
08R 148 ft / 45 m 10,341 ft / 3,152 m 77.59° 77.96° Asphalt 1,289 ft / 393 m 0 ft / 0 m
26L 148 ft / 45 m 10,341 ft / 3,152 m 257.63° 258.00° Asphalt 879 ft / 268 m 600 ft / 183 m
26R 148 ft / 45 m 8,377 ft / 2,553 m 257.71° 258.08° Asphalt 1,365 ft / 416 m 0 ft / 0 m

EGKA

Details ICAO EGKA (ESH)
Name Shoreham
Region United Kingdom
Timezone Europe/London (UTC+1.0)
Stats Elevation 7 ft / 2 m (AMSL)
Location 50.835805° -0.294806°
Runways 4
Magnetic Variation 0.371° W

METAR

EGKA 231520Z 04010KT 9999 SCT045 19/13 Q1021

Decode

TAF

Not found

Destination Runways

ID Width Length Bearing (true) Bearing (mag) Surface Threshold Offset Overrun Length
02 59 ft / 18 m 3,408 ft / 1,039 m 21.56° 21.93° Asphalt 548 ft / 167 m 0 ft / 0 m
02R 59 ft / 18 m 2,849 ft / 868 m 21.56° 21.93° Grass 171 ft / 52 m 0 ft / 0 m
07 164 ft / 50 m 2,883 ft / 879 m 63.45° 63.82° Grass 0 ft / 0 m 0 ft / 0 m
13 59 ft / 18 m 1,739 ft / 530 m 124.90° 125.27° Grass 0 ft / 0 m 0 ft / 0 m
20 59 ft / 18 m 3,408 ft / 1,039 m 201.56° 201.93° Asphalt 367 ft / 112 m 0 ft / 0 m
20L 59 ft / 18 m 2,849 ft / 868 m 201.56° 201.93° Grass 171 ft / 52 m 0 ft / 0 m
25 164 ft / 50 m 2,883 ft / 879 m 243.46° 243.83° Grass 285 ft / 87 m 0 ft / 0 m
31 59 ft / 18 m 1,739 ft / 530 m 304.91° 305.28° Grass 394 ft / 120 m 0 ft / 0 m

Popular Alternatives